sensor_id;sensor_type;location;lat;lon;timestamp;temperature;humidity
27306;DHT22;14792;50.886;6.468;2024-01-15T00:00:41;0.90;99.90
27306;DHT22;14792;50.886;6.468;2024-01-15T00:03:42;0.80;99.90
27306;DHT22;14792;50.886;6.468;2024-01-15T00:06:44;0.90;99.90
27306;DHT22;14792;50.886;6.468;2024-01-15T00:09:46;0.90;99.90
27306;DHT22;14792;50.886;6.468;2024-01-15T00:12:47;0.90;99.90
27306;DHT22;14792;50.886;6.468;2024-01-15T00:15:49;0.80;99.90
27306;DHT22;14792;50.886;6.468;2024-01-15T00:18:50;0.80;99.90
27306;DHT22;14792;50.886;6.468;2024-01-15T00:21:52;0.80;99.90
27306;DHT22;14792;50.886;6.468;2024-01-15T00:24:54;0.80;99.90
27306;DHT22;14792;50.886;6.468;2024-01-15T00:27:55;0.80;99.90
27306;DHT22;14792;50.886;6.468;2024-01-15T00:30:57;0.90;99.90
27306;DHT22;14792;50.886;6.468;2024-01-15T00:33:58;0.90;99.90
27306;DHT22;14792;50.886;6.468;2024-01-15T00:37:01;0.90;99.90
27306;DHT22;14792;50.886;6.468;2024-01-15T00:40:02;1.00;99.90
27306;DHT22;14792;50.886;6.468;2024-01-15T00:43:04;1.00;99.90
27306;DHT22;14792;50.886;6.468;2024-01-15T00:46:05;1.10;99.90
27306;DHT22;14792;50.886;6.468;2024-01-15T00:49:07;1.10;99.90
27306;DHT22;14792;50.886;6.468;2024-01-15T00:52:09;1.10;99.90
27306;DHT22;14792;50.886;6.468;2024-01-15T00:55:10;1.10;99.90
27306;DHT22;14792;50.886;6.468;2024-01-15T00:58:12;1.10;99.90
27306;DHT22;14792;50.886;6.468;2024-01-15T01:01:13;1.10;99.90
27306;DHT22;14792;50.886;6.468;2024-01-15T01:04:15;1.10;99.90
27306;DHT22;14792;50.886;6.468;2024-01-15T01:07:17;1.10;99.90
27306;DHT22;14792;50.886;6.468;2024-01-15T01:10:18;1.10;99.90
27306;DHT22;14792;50.886;6.468;2024-01-15T01:13:20;1.10;99.90
27306;DHT22;14792;50.886;6.468;2024-01-15T01:16:21;1.10;99.90
27306;DHT22;14792;50.886;6.468;2024-01-15T01:19:23;1.00;99.90
27306;DHT22;14792;50.886;6.468;2024-01-15T01:22:25;1.00;99.90
27306;DHT22;14792;50.886;6.468;2024-01-15T01:25:26;1.00;99.90
27306;DHT22;14792;50.886;6.468;2024-01-15T01:28:28;0.90;99.90
27306;DHT22;14792;50.886;6.468;2024-01-15T01:31:29;0.90;99.90
27306;DHT22;14792;50.886;6.468;2024-01-15T01:34:32;0.90;99.90
27306;DHT22;14792;50.886;6.468;2024-01-15T01:37:32;0.90;99.90
27306;DHT22;14792;50.886;6.468;2024-01-15T01:40:34;0.80;99.90
27306;DHT22;14792;50.886;6.468;2024-01-15T01:43:36;0.90;99.90
27306;DHT22;14792;50.886;6.468;2024-01-15T01:46:37;0.90;99.90
27306;DHT22;14792;50.886;6.468;2024-01-15T01:49:41;0.90;99.90
27306;DHT22;14792;50.886;6.468;2024-01-15T01:52:43;0.90;99.90
27306;DHT22;14792;50.886;6.468;2024-01-15T01:55:45;0.90;99.90
27306;DHT22;14792;50.886;6.468;2024-01-15T01:58:46;0.90;99.90
27306;DHT22;14792;50.886;6.468;2024-01-15T02:01:48;0.90;99.90
27306;DHT22;14792;50.886;6.468;2024-01-15T02:04:49;0.90;99.90
27306;DHT22;14792;50.886;6.468;2024-01-15T02:07:51;0.90;99.90
27306;DHT22;14792;50.886;6.468;2024-01-15T02:10:53;0.90;99.90
27306;DHT22;14792;50.886;6.468;2024-01-15T02:13:54;0.90;99.90
27306;DHT22;14792;50.886;6.468;2024-01-15T02:16:56;0.90;99.90
27306;DHT22;14792;50.886;6.468;2024-01-15T02:19:57;0.90;99.90
27306;DHT22;14792;50.886;6.468;2024-01-15T02:23:12;0.90;99.90
27306;DHT22;14792;50.886;6.468;2024-01-15T02:26:12;0.80;99.90
27306;DHT22;14792;50.886;6.468;2024-01-15T02:29:14;0.90;99.90
27306;DHT22;14792;50.886;6.468;2024-01-15T02:32:16;0.80;99.90
27306;DHT22;14792;50.886;6.468;2024-01-15T02:35:17;0.80;99.90
27306;DHT22;14792;50.886;6.468;2024-01-15T02:38:19;0.80;99.90
27306;DHT22;14792;50.886;6.468;2024-01-15T02:41:21;0.80;99.90
27306;DHT22;14792;50.886;6.468;2024-01-15T02:44:22;0.80;99.90
27306;DHT22;14792;50.886;6.468;2024-01-15T02:47:24;0.80;99.90
27306;DHT22;14792;50.886;6.468;2024-01-15T02:50:25;0.80;99.90
27306;DHT22;14792;50.886;6.468;2024-01-15T02:53:27;0.90;99.90
27306;DHT22;14792;50.886;6.468;2024-01-15T02:56:28;0.90;99.90
27306;DHT22;14792;50.886;6.468;2024-01-15T02:59:30;0.90;99.90
27306;DHT22;14792;50.886;6.468;2024-01-15T03:02:32;0.90;99.90
27306;DHT22;14792;50.886;6.468;2024-01-15T03:05:33;1.00;99.90
27306;DHT22;14792;50.886;6.468;2024-01-15T03:08:35;0.90;99.90
27306;DHT22;14792;50.886;6.468;2024-01-15T03:11:39;1.00;99.90
27306;DHT22;14792;50.886;6.468;2024-01-15T03:14:41;1.00;99.90
27306;DHT22;14792;50.886;6.468;2024-01-15T03:17:42;1.00;99.90
27306;DHT22;14792;50.886;6.468;2024-01-15T03:20:44;1.10;99.90
27306;DHT22;14792;50.886;6.468;2024-01-15T03:23:45;1.10;99.90
27306;DHT22;14792;50.886;6.468;2024-01-15T03:26:47;1.10;99.90
27306;DHT22;14792;50.886;6.468;2024-01-15T03:29:49;1.10;99.90
27306;DHT22;14792;50.886;6.468;2024-01-15T03:32:50;1.10;99.90
27306;DHT22;14792;50.886;6.468;2024-01-15T03:35:52;1.10;99.90
27306;DHT22;14792;50.886;6.468;2024-01-15T03:38:53;1.10;99.90
27306;DHT22;14792;50.886;6.468;2024-01-15T03:41:55;1.20;99.90
27306;DHT22;14792;50.886;6.468;2024-01-15T03:44:57;1.20;99.90
27306;DHT22;14792;50.886;6.468;2024-01-15T03:47:58;1.20;99.90
27306;DHT22;14792;50.886;6.468;2024-01-15T03:51:00;1.20;99.90
27306;DHT22;14792;50.886;6.468;2024-01-15T03:54:01;1.20;99.90
27306;DHT22;14792;50.886;6.468;2024-01-15T03:57:03;1.20;99.90
27306;DHT22;14792;50.886;6.468;2024-01-15T04:00:06;1.20;99.90
27306;DHT22;14792;50.886;6.468;2024-01-15T04:03:06;1.20;99.90
27306;DHT22;14792;50.886;6.468;2024-01-15T04:06:08;1.20;99.90
27306;DHT22;14792;50.886;6.468;2024-01-15T04:09:09;1.20;99.90
27306;DHT22;14792;50.886;6.468;2024-01-15T04:12:11;1.20;99.90
27306;DHT22;14792;50.886;6.468;2024-01-15T04:15:13;1.20;99.90
27306;DHT22;14792;50.886;6.468;2024-01-15T04:18:15;1.30;99.90
27306;DHT22;14792;50.886;6.468;2024-01-15T04:21:17;1.30;99.90
27306;DHT22;14792;50.886;6.468;2024-01-15T04:24:17;1.30;99.90
27306;DHT22;14792;50.886;6.468;2024-01-15T04:27:19;1.30;99.90
27306;DHT22;14792;50.886;6.468;2024-01-15T04:30:21;1.30;99.90
27306;DHT22;14792;50.886;6.468;2024-01-15T04:33:22;1.30;99.90
27306;DHT22;14792;50.886;6.468;2024-01-15T04:36:24;1.30;99.90
27306;DHT22;14792;50.886;6.468;2024-01-15T04:39:25;1.30;99.90
27306;DHT22;14792;50.886;6.468;2024-01-15T04:42:27;1.30;99.90
27306;DHT22;14792;50.886;6.468;2024-01-15T04:45:28;1.30;99.90
27306;DHT22;14792;50.886;6.468;2024-01-15T04:48:30;1.30;99.90
27306;DHT22;14792;50.886;6.468;2024-01-15T04:51:32;1.30;99.90
27306;DHT22;14792;50.886;6.468;2024-01-15T04:54:33;1.30;99.90
27306;DHT22;14792;50.886;6.468;2024-01-15T04:57:35;1.30;99.90
27306;DHT22;14792;50.886;6.468;2024-01-15T05:00:36;1.30;99.90
27306;DHT22;14792;50.886;6.468;2024-01-15T05:03:38;1.30;99.90
27306;DHT22;14792;50.886;6.468;2024-01-15T05:06:40;1.30;99.90
27306;DHT22;14792;50.886;6.468;2024-01-15T05:09:41;1.30;99.90
27306;DHT22;14792;50.886;6.468;2024-01-15T05:12:43;1.30;99.90
27306;DHT22;14792;50.886;6.468;2024-01-15T05:15:44;1.30;99.90
27306;DHT22;14792;50.886;6.468;2024-01-15T05:18:46;1.20;99.90
27306;DHT22;14792;50.886;6.468;2024-01-15T05:21:48;1.30;99.90
27306;DHT22;14792;50.886;6.468;2024-01-15T05:24:49;1.20;99.90
27306;DHT22;14792;50.886;6.468;2024-01-15T05:27:51;1.20;99.90
27306;DHT22;14792;50.886;6.468;2024-01-15T05:30:52;1.30;99.90
27306;DHT22;14792;50.886;6.468;2024-01-15T05:33:54;1.30;99.90
27306;DHT22;14792;50.886;6.468;2024-01-15T05:36:55;1.20;99.90
27306;DHT22;14792;50.886;6.468;2024-01-15T05:39:57;1.30;99.90
27306;DHT22;14792;50.886;6.468;2024-01-15T05:42:59;1.30;99.90
27306;DHT22;14792;50.886;6.468;2024-01-15T05:46:00;1.30;99.90
27306;DHT22;14792;50.886;6.468;2024-01-15T05:49:02;1.30;99.90
27306;DHT22;14792;50.886;6.468;2024-01-15T05:52:03;1.30;99.90
27306;DHT22;14792;50.886;6.468;2024-01-15T05:55:06;1.30;99.90
27306;DHT22;14792;50.886;6.468;2024-01-15T05:58:08;1.30;99.90
27306;DHT22;14792;50.886;6.468;2024-01-15T06:01:09;1.30;99.90
27306;DHT22;14792;50.886;6.468;2024-01-15T06:04:11;1.30;99.90
27306;DHT22;14792;50.886;6.468;2024-01-15T06:07:12;1.30;99.90
27306;DHT22;14792;50.886;6.468;2024-01-15T06:10:14;1.10;99.90
27306;DHT22;14792;50.886;6.468;2024-01-15T06:13:16;1.20;99.90
27306;DHT22;14792;50.886;6.468;2024-01-15T06:16:17;1.10;99.90
27306;DHT22;14792;50.886;6.468;2024-01-15T06:19:19;1.20;99.90
27306;DHT22;14792;50.886;6.468;2024-01-15T06:22:20;1.20;99.90
27306;DHT22;14792;50.886;6.468;2024-01-15T06:25:22;1.20;99.90
27306;DHT22;14792;50.886;6.468;2024-01-15T06:28:23;1.10;99.90
27306;DHT22;14792;50.886;6.468;2024-01-15T06:31:25;1.20;99.90
27306;DHT22;14792;50.886;6.468;2024-01-15T06:34:27;1.20;99.90
27306;DHT22;14792;50.886;6.468;2024-01-15T06:37:28;1.20;99.90
27306;DHT22;14792;50.886;6.468;2024-01-15T06:40:30;1.20;99.90
27306;DHT22;14792;50.886;6.468;2024-01-15T06:43:31;1.20;99.90
27306;DHT22;14792;50.886;6.468;2024-01-15T06:46:34;1.20;99.90
27306;DHT22;14792;50.886;6.468;2024-01-15T06:49:35;1.30;99.90
27306;DHT22;14792;50.886;6.468;2024-01-15T06:52:36;1.30;99.90
27306;DHT22;14792;50.886;6.468;2024-01-15T06:55:38;1.20;99.90
27306;DHT22;14792;50.886;6.468;2024-01-15T06:58:39;1.30;99.90
27306;DHT22;14792;50.886;6.468;2024-01-15T07:01:41;1.30;99.90
27306;DHT22;14792;50.886;6.468;2024-01-15T07:04:43;1.40;99.90
27306;DHT22;14792;50.886;6.468;2024-01-15T07:07:44;1.40;99.90
27306;DHT22;14792;50.886;6.468;2024-01-15T07:10:46;1.40;99.90
27306;DHT22;14792;50.886;6.468;2024-01-15T07:13:47;1.40;99.90
27306;DHT22;14792;50.886;6.468;2024-01-15T07:16:49;1.40;99.90
27306;DHT22;14792;50.886;6.468;2024-01-15T07:19:50;1.50;99.90
27306;DHT22;14792;50.886;6.468;2024-01-15T07:22:52;1.50;99.90
27306;DHT22;14792;50.886;6.468;2024-01-15T07:25:54;1.50;99.90
27306;DHT22;14792;50.886;6.468;2024-01-15T07:28:55;1.50;99.90
27306;DHT22;14792;50.886;6.468;2024-01-15T07:31:57;1.50;99.90
27306;DHT22;14792;50.886;6.468;2024-01-15T07:34:58;1.50;99.90
27306;DHT22;14792;50.886;6.468;2024-01-15T07:38:00;1.50;99.90
27306;DHT22;14792;50.886;6.468;2024-01-15T07:41:02;1.50;99.90
27306;DHT22;14792;50.886;6.468;2024-01-15T07:44:03;1.50;99.90
27306;DHT22;14792;50.886;6.468;2024-01-15T07:47:05;1.50;99.90
27306;DHT22;14792;50.886;6.468;2024-01-15T07:50:06;1.50;99.90
27306;DHT22;14792;50.886;6.468;2024-01-15T07:53:08;1.50;99.90
27306;DHT22;14792;50.886;6.468;2024-01-15T07:56:10;1.60;99.90
27306;DHT22;14792;50.886;6.468;2024-01-15T07:59:11;1.50;99.90
27306;DHT22;14792;50.886;6.468;2024-01-15T08:02:13;1.50;99.90
27306;DHT22;14792;50.886;6.468;2024-01-15T08:05:14;1.60;99.90
27306;DHT22;14792;50.886;6.468;2024-01-15T08:08:16;1.60;99.90
27306;DHT22;14792;50.886;6.468;2024-01-15T08:11:17;1.60;99.90
27306;DHT22;14792;50.886;6.468;2024-01-15T08:14:19;1.60;99.90
27306;DHT22;14792;50.886;6.468;2024-01-15T08:17:21;1.50;99.90
27306;DHT22;14792;50.886;6.468;2024-01-15T08:20:22;1.50;99.90
27306;DHT22;14792;50.886;6.468;2024-01-15T08:23:24;1.50;99.90
27306;DHT22;14792;50.886;6.468;2024-01-15T08:26:25;1.60;99.90
27306;DHT22;14792;50.886;6.468;2024-01-15T08:29:27;1.60;99.90
27306;DHT22;14792;50.886;6.468;2024-01-15T08:32:29;1.60;99.90
27306;DHT22;14792;50.886;6.468;2024-01-15T08:35:30;1.60;99.90
27306;DHT22;14792;50.886;6.468;2024-01-15T08:38:32;1.50;99.90
27306;DHT22;14792;50.886;6.468;2024-01-15T08:41:33;1.50;99.90
27306;DHT22;14792;50.886;6.468;2024-01-15T08:44:35;1.50;99.90
27306;DHT22;14792;50.886;6.468;2024-01-15T08:47:37;1.50;99.90
27306;DHT22;14792;50.886;6.468;2024-01-15T08:50:38;1.50;99.90
27306;DHT22;14792;50.886;6.468;2024-01-15T08:53:40;1.50;99.90
27306;DHT22;14792;50.886;6.468;2024-01-15T08:56:41;1.50;99.90
27306;DHT22;14792;50.886;6.468;2024-01-15T08:59:43;1.50;99.90
27306;DHT22;14792;50.886;6.468;2024-01-15T09:02:45;1.40;99.90
27306;DHT22;14792;50.886;6.468;2024-01-15T09:05:46;1.40;99.90
27306;DHT22;14792;50.886;6.468;2024-01-15T09:08:48;1.40;99.90
27306;DHT22;14792;50.886;6.468;2024-01-15T09:11:49;1.40;99.90
27306;DHT22;14792;50.886;6.468;2024-01-15T09:14:51;1.30;99.90
27306;DHT22;14792;50.886;6.468;2024-01-15T09:17:53;1.20;99.90
27306;DHT22;14792;50.886;6.468;2024-01-15T09:20:55;1.10;99.90
27306;DHT22;14792;50.886;6.468;2024-01-15T09:23:57;1.10;99.90
27306;DHT22;14792;50.886;6.468;2024-01-15T09:26:58;1.10;99.90
27306;DHT22;14792;50.886;6.468;2024-01-15T09:30:00;1.10;99.90
27306;DHT22;14792;50.886;6.468;2024-01-15T09:33:02;1.20;99.90
27306;DHT22;14792;50.886;6.468;2024-01-15T09:36:03;1.20;99.90
27306;DHT22;14792;50.886;6.468;2024-01-15T09:39:04;1.20;99.90
27306;DHT22;14792;50.886;6.468;2024-01-15T09:42:06;1.20;99.90
27306;DHT22;14792;50.886;6.468;2024-01-15T09:45:08;1.20;99.90
27306;DHT22;14792;50.886;6.468;2024-01-15T09:48:09;1.20;99.90
27306;DHT22;14792;50.886;6.468;2024-01-15T09:51:11;1.10;99.90
27306;DHT22;14792;50.886;6.468;2024-01-15T09:54:12;1.10;99.90
27306;DHT22;14792;50.886;6.468;2024-01-15T09:57:14;1.10;99.90
27306;DHT22;14792;50.886;6.468;2024-01-15T10:00:17;1.10;99.90
27306;DHT22;14792;50.886;6.468;2024-01-15T10:03:17;1.20;99.90
27306;DHT22;14792;50.886;6.468;2024-01-15T10:06:19;1.20;99.90
27306;DHT22;14792;50.886;6.468;2024-01-15T10:09:20;1.20;99.90
27306;DHT22;14792;50.886;6.468;2024-01-15T10:12:22;1.20;99.90
27306;DHT22;14792;50.886;6.468;2024-01-15T10:15:24;1.20;99.90
27306;DHT22;14792;50.886;6.468;2024-01-15T10:18:25;1.10;99.90
27306;DHT22;14792;50.886;6.468;2024-01-15T10:21:27;1.10;99.90
27306;DHT22;14792;50.886;6.468;2024-01-15T10:24:28;1.10;99.90
27306;DHT22;14792;50.886;6.468;2024-01-15T10:27:30;1.10;99.90
27306;DHT22;14792;50.886;6.468;2024-01-15T10:30:32;1.10;99.90
27306;DHT22;14792;50.886;6.468;2024-01-15T10:33:33;1.10;99.90
27306;DHT22;14792;50.886;6.468;2024-01-15T10:36:35;1.10;99.90
27306;DHT22;14792;50.886;6.468;2024-01-15T10:39:36;1.10;99.90
27306;DHT22;14792;50.886;6.468;2024-01-15T10:42:38;1.10;99.90
27306;DHT22;14792;50.886;6.468;2024-01-15T10:45:39;1.10;99.90
27306;DHT22;14792;50.886;6.468;2024-01-15T10:48:41;1.10;99.90
27306;DHT22;14792;50.886;6.468;2024-01-15T10:51:43;1.10;99.90
27306;DHT22;14792;50.886;6.468;2024-01-15T10:54:44;1.10;99.90
27306;DHT22;14792;50.886;6.468;2024-01-15T10:57:46;1.10;99.90
27306;DHT22;14792;50.886;6.468;2024-01-15T11:00:47;1.10;99.90
27306;DHT22;14792;50.886;6.468;2024-01-15T11:03:49;1.10;99.90
27306;DHT22;14792;50.886;6.468;2024-01-15T11:06:52;1.10;99.90
27306;DHT22;14792;50.886;6.468;2024-01-15T11:09:52;1.10;99.90
27306;DHT22;14792;50.886;6.468;2024-01-15T11:12:54;1.20;99.90
27306;DHT22;14792;50.886;6.468;2024-01-15T11:22:01;1.30;99.90
27306;DHT22;14792;50.886;6.468;2024-01-15T11:25:05;1.30;99.90
27306;DHT22;14792;50.886;6.468;2024-01-15T11:28:05;1.40;99.90
27306;DHT22;14792;50.886;6.468;2024-01-15T11:31:06;1.40;99.90
27306;DHT22;14792;50.886;6.468;2024-01-15T11:34:08;1.40;99.90
27306;DHT22;14792;50.886;6.468;2024-01-15T11:37:09;1.50;99.90
27306;DHT22;14792;50.886;6.468;2024-01-15T11:40:11;1.50;99.90
27306;DHT22;14792;50.886;6.468;2024-01-15T11:43:13;1.40;99.90
27306;DHT22;14792;50.886;6.468;2024-01-15T11:46:14;1.50;99.90
27306;DHT22;14792;50.886;6.468;2024-01-15T11:49:17;1.40;99.90
27306;DHT22;14792;50.886;6.468;2024-01-15T11:52:18;1.40;99.90
27306;DHT22;14792;50.886;6.468;2024-01-15T11:58:20;1.50;99.90
27306;DHT22;14792;50.886;6.468;2024-01-15T12:01:22;1.60;99.90
27306;DHT22;14792;50.886;6.468;2024-01-15T12:04:24;1.70;99.90
27306;DHT22;14792;50.886;6.468;2024-01-15T12:07:25;1.80;99.90
27306;DHT22;14792;50.886;6.468;2024-01-15T12:10:27;2.10;99.90
27306;DHT22;14792;50.886;6.468;2024-01-15T12:13:28;2.30;99.90
27306;DHT22;14792;50.886;6.468;2024-01-15T12:16:30;2.30;99.90
27306;DHT22;14792;50.886;6.468;2024-01-15T12:19:32;2.20;99.90
27306;DHT22;14792;50.886;6.468;2024-01-15T12:22:33;2.10;99.90
27306;DHT22;14792;50.886;6.468;2024-01-15T12:25:35;2.00;99.90
27306;DHT22;14792;50.886;6.468;2024-01-15T12:28:36;1.80;99.90
27306;DHT22;14792;50.886;6.468;2024-01-15T12:31:38;1.80;99.90
27306;DHT22;14792;50.886;6.468;2024-01-15T12:34:43;1.80;99.90
27306;DHT22;14792;50.886;6.468;2024-01-15T12:37:44;1.70;99.90
27306;DHT22;14792;50.886;6.468;2024-01-15T12:40:45;1.70;99.90
27306;DHT22;14792;50.886;6.468;2024-01-15T12:43:49;1.70;99.90
27306;DHT22;14792;50.886;6.468;2024-01-15T12:46:51;1.60;99.90
27306;DHT22;14792;50.886;6.468;2024-01-15T12:49:53;1.60;99.90
27306;DHT22;14792;50.886;6.468;2024-01-15T12:52:57;1.60;99.90
27306;DHT22;14792;50.886;6.468;2024-01-15T12:55:59;1.50;99.90
27306;DHT22;14792;50.886;6.468;2024-01-15T12:59:00;1.40;99.90
27306;DHT22;14792;50.886;6.468;2024-01-15T13:02:02;1.50;99.90
27306;DHT22;14792;50.886;6.468;2024-01-15T13:05:03;1.50;99.90
27306;DHT22;14792;50.886;6.468;2024-01-15T13:08:05;1.50;99.90
27306;DHT22;14792;50.886;6.468;2024-01-15T13:11:07;1.60;99.90
27306;DHT22;14792;50.886;6.468;2024-01-15T13:14:08;1.60;99.90
27306;DHT22;14792;50.886;6.468;2024-01-15T13:17:10;1.70;99.90
27306;DHT22;14792;50.886;6.468;2024-01-15T13:20:11;1.70;99.90
27306;DHT22;14792;50.886;6.468;2024-01-15T13:23:13;1.70;99.90
27306;DHT22;14792;50.886;6.468;2024-01-15T13:26:14;1.70;99.90
27306;DHT22;14792;50.886;6.468;2024-01-15T13:29:16;1.70;99.90
27306;DHT22;14792;50.886;6.468;2024-01-15T13:32:21;1.60;99.90
27306;DHT22;14792;50.886;6.468;2024-01-15T13:35:19;1.60;99.90
27306;DHT22;14792;50.886;6.468;2024-01-15T13:38:21;1.60;99.90
27306;DHT22;14792;50.886;6.468;2024-01-15T13:41:22;1.50;99.90
27306;DHT22;14792;50.886;6.468;2024-01-15T13:44:24;1.50;99.90
27306;DHT22;14792;50.886;6.468;2024-01-15T13:47:26;1.40;99.90
27306;DHT22;14792;50.886;6.468;2024-01-15T13:50:27;1.40;99.90
27306;DHT22;14792;50.886;6.468;2024-01-15T13:53:29;1.40;99.90
27306;DHT22;14792;50.886;6.468;2024-01-15T13:56:30;1.40;99.90
27306;DHT22;14792;50.886;6.468;2024-01-15T13:59:32;1.40;99.90
27306;DHT22;14792;50.886;6.468;2024-01-15T14:02:34;1.40;99.90
27306;DHT22;14792;50.886;6.468;2024-01-15T14:05:36;1.40;99.90
27306;DHT22;14792;50.886;6.468;2024-01-15T14:08:37;1.30;99.90
27306;DHT22;14792;50.886;6.468;2024-01-15T14:11:38;1.40;99.90
27306;DHT22;14792;50.886;6.468;2024-01-15T14:14:40;1.40;99.90
27306;DHT22;14792;50.886;6.468;2024-01-15T14:17:41;1.40;99.90
27306;DHT22;14792;50.886;6.468;2024-01-15T14:20:43;1.50;99.90
27306;DHT22;14792;50.886;6.468;2024-01-15T14:23:45;1.40;99.90
27306;DHT22;14792;50.886;6.468;2024-01-15T14:26:46;1.40;99.90
27306;DHT22;14792;50.886;6.468;2024-01-15T14:29:48;1.40;99.90
27306;DHT22;14792;50.886;6.468;2024-01-15T14:32:49;1.40;99.90
27306;DHT22;14792;50.886;6.468;2024-01-15T14:35:51;1.40;99.90
27306;DHT22;14792;50.886;6.468;2024-01-15T14:38:52;1.40;99.90
27306;DHT22;14792;50.886;6.468;2024-01-15T14:41:54;1.40;99.90
27306;DHT22;14792;50.886;6.468;2024-01-15T14:44:56;1.40;99.90
27306;DHT22;14792;50.886;6.468;2024-01-15T14:47:57;1.50;99.90
27306;DHT22;14792;50.886;6.468;2024-01-15T14:50:59;1.40;99.90
27306;DHT22;14792;50.886;6.468;2024-01-15T14:54:00;1.30;99.90
27306;DHT22;14792;50.886;6.468;2024-01-15T14:57:02;1.20;99.90
27306;DHT22;14792;50.886;6.468;2024-01-15T15:00:04;1.20;99.90
27306;DHT22;14792;50.886;6.468;2024-01-15T15:03:05;1.10;99.90
27306;DHT22;14792;50.886;6.468;2024-01-15T15:06:07;1.10;99.90
27306;DHT22;14792;50.886;6.468;2024-01-15T15:09:11;1.10;99.90
27306;DHT22;14792;50.886;6.468;2024-01-15T15:12:13;1.10;99.90
27306;DHT22;14792;50.886;6.468;2024-01-15T15:15:14;1.20;99.90
27306;DHT22;14792;50.886;6.468;2024-01-15T15:18:16;1.10;99.90
27306;DHT22;14792;50.886;6.468;2024-01-15T15:21:17;1.10;99.90
27306;DHT22;14792;50.886;6.468;2024-01-15T15:24:19;1.10;99.90
27306;DHT22;14792;50.886;6.468;2024-01-15T15:27:21;1.20;99.90
27306;DHT22;14792;50.886;6.468;2024-01-15T15:30:22;1.20;99.90
27306;DHT22;14792;50.886;6.468;2024-01-15T15:33:24;1.20;99.90
27306;DHT22;14792;50.886;6.468;2024-01-15T15:36:25;1.20;99.90
27306;DHT22;14792;50.886;6.468;2024-01-15T15:39:27;1.30;99.90
27306;DHT22;14792;50.886;6.468;2024-01-15T15:42:28;1.30;99.90
27306;DHT22;14792;50.886;6.468;2024-01-15T15:45:30;1.30;99.90
27306;DHT22;14792;50.886;6.468;2024-01-15T15:48:32;1.30;99.90
27306;DHT22;14792;50.886;6.468;2024-01-15T15:51:33;1.30;99.90
27306;DHT22;14792;50.886;6.468;2024-01-15T15:54:35;1.30;99.90
27306;DHT22;14792;50.886;6.468;2024-01-15T15:57:36;1.30;99.90
27306;DHT22;14792;50.886;6.468;2024-01-15T16:00:38;1.40;99.90
27306;DHT22;14792;50.886;6.468;2024-01-15T16:03:40;1.30;99.90
27306;DHT22;14792;50.886;6.468;2024-01-15T16:06:41;1.30;99.90
27306;DHT22;14792;50.886;6.468;2024-01-15T16:09:43;1.30;99.90
27306;DHT22;14792;50.886;6.468;2024-01-15T16:12:44;1.30;99.90
27306;DHT22;14792;50.886;6.468;2024-01-15T16:15:46;1.30;99.90
27306;DHT22;14792;50.886;6.468;2024-01-15T16:18:47;1.20;99.90
27306;DHT22;14792;50.886;6.468;2024-01-15T16:21:49;1.30;99.90
27306;DHT22;14792;50.886;6.468;2024-01-15T16:24:51;1.30;99.90
27306;DHT22;14792;50.886;6.468;2024-01-15T16:27:52;1.30;99.90
27306;DHT22;14792;50.886;6.468;2024-01-15T16:30:54;1.20;99.90
27306;DHT22;14792;50.886;6.468;2024-01-15T16:33:55;1.30;99.90
27306;DHT22;14792;50.886;6.468;2024-01-15T16:36:57;1.20;99.90
27306;DHT22;14792;50.886;6.468;2024-01-15T16:39:59;1.20;99.90
27306;DHT22;14792;50.886;6.468;2024-01-15T16:43:00;1.20;99.90
27306;DHT22;14792;50.886;6.468;2024-01-15T16:46:02;1.20;99.90
27306;DHT22;14792;50.886;6.468;2024-01-15T16:49:03;1.20;99.90
27306;DHT22;14792;50.886;6.468;2024-01-15T16:52:05;1.20;99.90
27306;DHT22;14792;50.886;6.468;2024-01-15T16:55:06;1.20;99.90
27306;DHT22;14792;50.886;6.468;2024-01-15T16:58:08;1.20;99.90
27306;DHT22;14792;50.886;6.468;2024-01-15T17:01:10;1.20;99.90
27306;DHT22;14792;50.886;6.468;2024-01-15T17:04:11;1.10;99.90
27306;DHT22;14792;50.886;6.468;2024-01-15T17:07:13;1.10;99.90
27306;DHT22;14792;50.886;6.468;2024-01-15T17:10:14;1.00;99.90
27306;DHT22;14792;50.886;6.468;2024-01-15T17:13:16;1.00;99.90
27306;DHT22;14792;50.886;6.468;2024-01-15T17:16:18;1.00;99.90
27306;DHT22;14792;50.886;6.468;2024-01-15T17:19:19;0.90;99.90
27306;DHT22;14792;50.886;6.468;2024-01-15T17:22:21;0.90;99.90
27306;DHT22;14792;50.886;6.468;2024-01-15T17:25:22;0.90;99.90
27306;DHT22;14792;50.886;6.468;2024-01-15T17:28:24;0.90;99.90
27306;DHT22;14792;50.886;6.468;2024-01-15T17:31:25;0.80;99.90
27306;DHT22;14792;50.886;6.468;2024-01-15T17:34:27;0.80;99.90
27306;DHT22;14792;50.886;6.468;2024-01-15T17:37:29;0.80;99.90
27306;DHT22;14792;50.886;6.468;2024-01-15T17:40:30;0.80;99.90
27306;DHT22;14792;50.886;6.468;2024-01-15T17:43:32;0.70;99.90
27306;DHT22;14792;50.886;6.468;2024-01-15T17:46:36;0.80;99.90
27306;DHT22;14792;50.886;6.468;2024-01-15T17:49:38;0.70;99.90
27306;DHT22;14792;50.886;6.468;2024-01-15T17:52:39;0.80;99.90
27306;DHT22;14792;50.886;6.468;2024-01-15T17:55:41;0.70;99.90
27306;DHT22;14792;50.886;6.468;2024-01-15T17:58:43;0.70;99.90
27306;DHT22;14792;50.886;6.468;2024-01-15T18:01:44;0.60;99.90
27306;DHT22;14792;50.886;6.468;2024-01-15T18:04:46;0.60;99.90
27306;DHT22;14792;50.886;6.468;2024-01-15T18:07:47;0.60;99.90
27306;DHT22;14792;50.886;6.468;2024-01-15T18:10:49;0.60;99.90
27306;DHT22;14792;50.886;6.468;2024-01-15T18:13:50;0.60;99.90
27306;DHT22;14792;50.886;6.468;2024-01-15T18:16:52;0.60;99.90
27306;DHT22;14792;50.886;6.468;2024-01-15T18:19:54;0.60;99.90
27306;DHT22;14792;50.886;6.468;2024-01-15T18:22:55;0.60;99.90
27306;DHT22;14792;50.886;6.468;2024-01-15T18:25:57;0.60;99.90
27306;DHT22;14792;50.886;6.468;2024-01-15T18:28:58;0.60;99.90
27306;DHT22;14792;50.886;6.468;2024-01-15T18:32:00;0.60;99.90
27306;DHT22;14792;50.886;6.468;2024-01-15T18:35:02;0.50;99.90
27306;DHT22;14792;50.886;6.468;2024-01-15T18:38:04;0.50;99.90
27306;DHT22;14792;50.886;6.468;2024-01-15T18:41:05;0.50;99.90
27306;DHT22;14792;50.886;6.468;2024-01-15T18:44:06;0.60;99.90
27306;DHT22;14792;50.886;6.468;2024-01-15T18:47:08;0.60;99.90
27306;DHT22;14792;50.886;6.468;2024-01-15T18:50:09;0.60;99.90
27306;DHT22;14792;50.886;6.468;2024-01-15T18:53:11;0.60;99.90
27306;DHT22;14792;50.886;6.468;2024-01-15T18:56:13;0.60;99.90
27306;DHT22;14792;50.886;6.468;2024-01-15T18:59:14;0.60;99.90
27306;DHT22;14792;50.886;6.468;2024-01-15T19:02:16;0.50;99.90
27306;DHT22;14792;50.886;6.468;2024-01-15T19:05:17;0.50;99.90
27306;DHT22;14792;50.886;6.468;2024-01-15T19:08:19;0.50;99.90
27306;DHT22;14792;50.886;6.468;2024-01-15T19:11:21;0.50;99.90
27306;DHT22;14792;50.886;6.468;2024-01-15T19:14:25;0.50;99.90
27306;DHT22;14792;50.886;6.468;2024-01-15T19:17:27;0.50;99.90
27306;DHT22;14792;50.886;6.468;2024-01-15T19:20:28;0.50;99.90
27306;DHT22;14792;50.886;6.468;2024-01-15T19:23:30;0.50;99.90
27306;DHT22;14792;50.886;6.468;2024-01-15T19:26:31;0.60;99.90
27306;DHT22;14792;50.886;6.468;2024-01-15T19:29:33;0.50;99.90
27306;DHT22;14792;50.886;6.468;2024-01-15T19:32:34;0.50;99.90